Time;durP1;ratioP1;P1;durP2;ratioP2;P2;SDS_P1;SDS_P2;PMS_P1;PMS_P2;Temp;Humidity;BMP_temperature;BMP_pressure;BME280_temperature;BME280_humidity;BME280_pressure;Samples;Min_cycle;Max_cycle;Signal;HPM_P1;HPM_P2
2023/05/23 00:01:13;;;;;;;3.88;3.55;;;22.30;83.30;;;;;;5068303;28;20326;-69
2023/05/23 00:03:40;;;;;;;4.70;4.28;;;22.30;83.50;;;;;;5067725;28;20928;-69
2023/05/23 00:06:07;;;;;;;6.25;3.90;;;22.30;83.60;;;;;;5067613;28;20200;-69
2023/05/23 00:08:34;;;;;;;4.05;3.40;;;22.30;83.70;;;;;;5065843;28;20211;-69
2023/05/23 00:11:02;;;;;;;8.27;3.95;;;22.30;83.70;;;;;;5068177;28;20303;-69
2023/05/23 00:13:32;;;;;;;4.70;3.38;;;22.30;84.20;;;;;;5067917;28;20362;-69
2023/05/23 00:15:59;;;;;;;3.97;3.60;;;22.20;84.30;;;;;;5067959;28;20207;-69
2023/05/23 00:18:26;;;;;;;6.45;3.95;;;22.20;84.70;;;;;;5068144;28;20789;-69
2023/05/23 00:20:53;;;;;;;3.65;3.45;;;22.10;84.50;;;;;;5067474;28;20294;-69
2023/05/23 00:23:21;;;;;;;3.60;3.30;;;22.10;84.50;;;;;;5067480;28;20828;-69
2023/05/23 00:25:51;;;;;;;4.13;3.70;;;22.00;84.60;;;;;;5067845;28;20368;-69
2023/05/23 00:28:19;;;;;;;3.72;3.53;;;22.00;84.70;;;;;;5068179;28;20206;-70
2023/05/23 00:30:47;;;;;;;3.40;3.20;;;22.00;85.40;;;;;;5067413;28;20369;-69
2023/05/23 00:33:15;;;;;;;5.05;3.88;;;21.90;85.40;;;;;;5067630;28;20616;-70
2023/05/23 00:35:41;;;;;;;7.10;4.18;;;21.90;85.40;;;;;;5067142;28;20207;-70
2023/05/23 00:38:10;;;;;;;4.20;3.78;;;21.90;85.30;;;;;;5067479;28;20665;-69
2023/05/23 00:40:37;;;;;;;6.20;3.08;;;21.90;85.80;;;;;;5067147;28;20216;-70
2023/05/23 00:43:04;;;;;;;4.40;3.78;;;21.90;85.30;;;;;;5066926;28;20970;-72
2023/05/23 00:45:32;;;;;;;3.78;3.47;;;21.70;85.40;;;;;;5066904;28;20290;-70
2023/05/23 00:47:59;;;;;;;3.88;3.60;;;21.70;85.70;;;;;;5067214;28;20726;-70
2023/05/23 00:50:28;;;;;;;4.68;3.85;;;21.60;85.90;;;;;;5067103;28;20235;-70
2023/05/23 00:52:57;;;;;;;4.53;4.05;;;21.60;86.20;;;;;;5066777;28;20577;-70
2023/05/23 00:55:25;;;;;;;6.18;3.80;;;21.60;86.10;;;;;;5066852;28;20717;-71
2023/05/23 00:57:54;;;;;;;4.05;3.65;;;21.60;85.90;;;;;;5066999;28;20247;-70
2023/05/23 01:00:23;;;;;;;4.30;3.47;;;21.70;85.80;;;;;;5067115;28;20215;-70
2023/05/23 01:02:52;;;;;;;6.30;3.63;;;21.60;85.50;;;;;;5067148;28;20341;-71
2023/05/23 01:05:21;;;;;;;4.25;3.42;;;21.60;85.50;;;;;;5066994;28;20237;-71
2023/05/23 01:07:49;;;;;;;8.00;3.53;;;21.50;85.70;;;;;;5066784;28;20291;-71
2023/05/23 01:10:19;;;;;;;4.43;3.63;;;21.50;86.20;;;;;;5066840;28;20262;-71
2023/05/23 01:12:57;;;;;;;3.67;3.38;;;21.50;86.20;;;;;;5066414;28;20232;-71
2023/05/23 01:15:29;;;;;;;4.57;3.65;;;21.50;86.20;;;;;;5066442;28;20226;-71
2023/05/23 01:18:03;;;;;;;5.05;3.63;;;21.50;86.50;;;;;;5066539;28;20306;-71
2023/05/23 01:20:35;;;;;;;3.97;3.40;;;21.40;86.90;;;;;;5066562;28;20217;-71
2023/05/23 01:23:36;;;;;;;3.78;3.40;;;21.30;87.20;;;;;;5066589;28;20291;-70
2023/05/23 01:26:13;;;;;;;4.55;3.92;;;21.30;87.90;;;;;;5066353;28;20273;-70
2023/05/23 01:28:46;;;;;;;4.10;3.72;;;21.30;88.20;;;;;;5066144;28;20287;-70
2023/05/23 01:31:14;;;;;;;3.78;3.50;;;21.30;88.30;;;;;;5066321;28;20354;-70
2023/05/23 01:33:43;;;;;;;4.10;3.80;;;21.30;88.90;;;;;;5066316;28;20634;-70
2023/05/23 01:36:13;;;;;;;3.75;3.45;;;21.30;88.80;;;;;;5065777;28;20342;-70
2023/05/23 01:38:40;;;;;;;4.47;3.60;;;21.30;89.00;;;;;;5065998;28;20233;-71
2023/05/23 01:41:07;;;;;;;3.92;3.60;;;21.30;89.00;;;;;;5066319;28;20249;-70
2023/05/23 01:43:34;;;;;;;3.75;3.45;;;21.30;89.30;;;;;;5066556;28;20210;-70
2023/05/23 01:46:04;;;;;;;4.05;3.38;;;21.20;89.90;;;;;;5066107;28;20213;-70
2023/05/23 01:48:31;;;;;;;3.75;3.50;;;21.20;90.30;;;;;;5066692;28;20318;-71
2023/05/23 01:50:59;;;;;;;4.47;3.55;;;21.20;90.50;;;;;;5065822;28;20292;-70
2023/05/23 01:53:27;;;;;;;3.58;3.17;;;21.20;90.40;;;;;;5065161;28;20290;-71
2023/05/23 01:55:54;;;;;;;4.43;3.88;;;21.20;90.40;;;;;;5065506;28;20265;-70
2023/05/23 01:58:22;;;;;;;4.05;3.70;;;21.20;90.20;;;;;;5065536;28;20685;-71
2023/05/23 02:00:49;;;;;;;4.38;3.63;;;21.10;90.10;;;;;;5065837;28;20286;-71
2023/05/23 02:03:17;;;;;;;4.18;3.75;;;21.10;90.20;;;;;;5065271;28;20294;-72
2023/05/23 02:05:44;;;;;;;4.47;3.95;;;21.10;90.10;;;;;;5066267;28;20312;-71
2023/05/23 02:08:11;;;;;;;3.72;3.50;;;21.10;90.20;;;;;;5065828;28;20314;-71
2023/05/23 02:10:37;;;;;;;4.10;3.80;;;21.10;90.30;;;;;;5064781;28;20683;-72
2023/05/23 02:13:04;;;;;;;4.35;3.67;;;21.10;90.40;;;;;;5065379;28;20356;-72
2023/05/23 02:15:31;;;;;;;4.20;3.70;;;21.10;90.40;;;;;;5065844;28;20214;-71
2023/05/23 02:17:58;;;;;;;4.15;3.30;;;21.00;90.40;;;;;;5064633;28;20231;-70
2023/05/23 02:20:26;;;;;;;4.05;3.67;;;21.00;90.00;;;;;;5058323;28;20203;-70
2023/05/23 02:22:53;;;;;;;4.85;3.60;;;21.00;90.00;;;;;;5059291;28;20288;-70
2023/05/23 02:25:20;;;;;;;4.32;3.67;;;21.00;90.60;;;;;;5051362;28;20209;-70
2023/05/23 02:27:47;;;;;;;3.85;3.42;;;21.00;90.70;;;;;;5053657;28;20290;-70
2023/05/23 02:30:14;;;;;;;5.68;4.07;;;21.00;90.70;;;;;;5059289;28;20739;-70
2023/05/23 02:32:41;;;;;;;4.65;4.15;;;20.90;90.40;;;;;;5063208;28;20670;-70
2023/05/23 02:35:09;;;;;;;4.22;3.55;;;20.80;90.60;;;;;;5063144;28;20314;-70
2023/05/23 02:37:37;;;;;;;4.15;3.67;;;20.80;90.80;;;;;;5064073;28;20364;-70
2023/05/23 02:40:06;;;;;;;14.73;5.10;;;20.80;91.20;;;;;;5064196;28;20479;-70
2023/05/23 02:42:33;;;;;;;11.43;4.43;;;20.80;91.50;;;;;;5063687;28;20211;-70
2023/05/23 02:45:00;;;;;;;6.10;4.00;;;20.80;91.70;;;;;;5063807;28;20247;-70
2023/05/23 02:47:27;;;;;;;6.00;4.03;;;20.70;92.30;;;;;;5063903;28;20272;-70
2023/05/23 02:49:54;;;;;;;4.72;4.20;;;20.60;92.10;;;;;;5063592;28;20317;-70
2023/05/23 02:52:21;;;;;;;5.05;3.83;;;20.60;91.90;;;;;;5063799;28;20293;-70
2023/05/23 02:54:49;;;;;;;5.80;4.03;;;20.60;92.30;;;;;;5057921;28;20214;-70
2023/05/23 02:57:16;;;;;;;5.05;4.18;;;20.50;92.30;;;;;;5048103;28;20298;-70
2023/05/23 02:59:43;;;;;;;4.88;3.88;;;20.50;92.40;;;;;;5063358;28;20239;-70
2023/05/23 03:02:10;;;;;;;4.65;3.80;;;20.60;92.00;;;;;;5063194;28;20618;-69
2023/05/23 03:04:37;;;;;;;3.85;3.45;;;20.50;91.90;;;;;;5062862;28;20286;-69
2023/05/23 03:07:05;;;;;;;4.82;3.70;;;20.50;92.20;;;;;;5045504;28;20212;-70
2023/05/23 03:09:32;;;;;;;4.68;4.13;;;20.60;92.70;;;;;;5044560;28;20240;-70
2023/05/23 03:12:00;;;;;;;6.63;3.85;;;20.60;92.90;;;;;;5044459;28;20236;-71
2023/05/23 03:14:27;;;;;;;5.83;4.43;;;20.50;92.90;;;;;;5044489;28;20211;-71
2023/05/23 03:16:54;;;;;;;4.10;3.70;;;20.30;92.80;;;;;;5053835;28;20299;-70
2023/05/23 03:19:21;;;;;;;5.60;4.03;;;20.30;92.90;;;;;;5064309;28;20245;-70
2023/05/23 03:21:49;;;;;;;4.70;4.07;;;20.30;93.00;;;;;;5064276;28;20208;-70
2023/05/23 03:24:16;;;;;;;4.63;4.00;;;20.30;93.60;;;;;;5064802;28;20266;-71
2023/05/23 03:26:43;;;;;;;4.40;4.00;;;20.30;94.10;;;;;;5065176;28;20863;-70
2023/05/23 03:29:11;;;;;;;4.90;4.00;;;20.20;94.10;;;;;;5068233;28;20235;-71
2023/05/23 03:31:38;;;;;;;6.00;4.22;;;20.20;94.10;;;;;;5068214;28;20250;-71
2023/05/23 03:34:05;;;;;;;8.98;4.30;;;20.20;94.40;;;;;;5068759;28;20294;-71
2023/05/23 03:36:33;;;;;;;3.92;3.58;;;20.20;94.50;;;;;;5068522;28;20219;-71
2023/05/23 03:39:00;;;;;;;8.73;4.13;;;20.20;94.80;;;;;;5068522;28;20203;-71
2023/05/23 03:41:27;;;;;;;4.70;4.30;;;20.20;95.10;;;;;;5068382;28;20812;-71
2023/05/23 03:43:53;;;;;;;5.65;4.25;;;20.20;95.20;;;;;;5069080;28;20243;-71
2023/05/23 03:46:22;;;;;;;6.75;4.25;;;20.20;95.30;;;;;;5068549;28;20291;-71
2023/05/23 03:48:50;;;;;;;5.07;4.53;;;20.20;95.60;;;;;;5069146;28;20850;-71
2023/05/23 03:51:17;;;;;;;5.55;4.22;;;20.20;95.80;;;;;;5068661;28;20230;-71
2023/05/23 03:53:44;;;;;;;8.03;4.70;;;20.20;96.10;;;;;;5068527;28;20685;-71
2023/05/23 03:56:10;;;;;;;5.50;4.80;;;20.20;96.30;;;;;;5068718;28;20704;-71
2023/05/23 03:58:37;;;;;;;4.65;4.00;;;20.00;96.10;;;;;;5068371;28;20322;-71
2023/05/23 04:01:06;;;;;;;5.43;4.93;;;20.00;96.40;;;;;;5068519;28;20216;-71
2023/05/23 04:03:34;;;;;;;7.03;5.00;;;20.00;96.40;;;;;;5068171;28;20203;-71
2023/05/23 04:06:01;;;;;;;7.53;4.93;;;20.00;96.60;;;;;;5068525;28;20314;-71
2023/05/23 04:08:32;;;;;;;5.03;4.50;;;20.00;96.60;;;;;;5068057;28;20307;-71
2023/05/23 04:11:00;;;;;;;5.32;4.47;;;20.10;97.30;;;;;;5068574;28;20250;-71
2023/05/23 04:13:27;;;;;;;8.43;4.63;;;20.10;97.60;;;;;;5067791;28;20235;-71
2023/05/23 04:15:55;;;;;;;9.18;4.63;;;20.20;98.00;;;;;;5067723;28;20207;-71
2023/05/23 04:18:22;;;;;;;6.63;4.83;;;20.20;98.20;;;;;;5067954;28;20208;-71
2023/05/23 04:20:50;;;;;;;5.50;4.50;;;20.10;98.20;;;;;;5068240;28;20199;-71
2023/05/23 04:23:17;;;;;;;5.20;4.70;;;20.10;98.10;;;;;;5068107;28;20294;-71
2023/05/23 04:25:44;;;;;;;4.95;4.50;;;20.10;98.20;;;;;;5067871;28;20659;-71
2023/05/23 04:28:11;;;;;;;6.63;5.50;;;20.00;98.30;;;;;;5068055;28;20294;-71
2023/05/23 04:30:38;;;;;;;5.50;5.00;;;20.00;98.20;;;;;;5067992;28;20322;-71
2023/05/23 04:33:05;;;;;;;5.40;5.00;;;19.90;97.70;;;;;;5068202;28;20207;-71
2023/05/23 04:35:37;;;;;;;5.57;4.73;;;20.00;97.50;;;;;;5067774;28;20228;-71
2023/05/23 04:38:05;;;;;;;5.22;4.60;;;20.00;97.60;;;;;;5067702;28;20196;-71
2023/05/23 04:40:33;;;;;;;7.03;5.40;;;20.00;98.00;;;;;;5066916;28;20296;-71
2023/05/23 04:42:59;;;;;;;6.20;4.88;;;19.90;98.30;;;;;;5067142;28;21030;-71
2023/05/23 04:45:27;;;;;;;5.95;4.78;;;19.90;98.90;;;;;;5066992;28;20728;-71
2023/05/23 04:47:55;;;;;;;5.25;4.63;;;20.00;99.30;;;;;;5067312;28;20208;-71
2023/05/23 04:50:22;;;;;;;7.75;5.20;;;19.90;99.70;;;;;;5067213;28;20276;-71
2023/05/23 04:52:49;;;;;;;9.13;5.80;;;19.90;99.90;;;;;;5067440;28;20260;-71
2023/05/23 04:55:18;;;;;;;9.23;5.20;;;19.90;99.90;;;;;;5067388;28;20286;-71
2023/05/23 04:57:45;;;;;;;8.30;4.93;;;19.80;99.90;;;;;;5067424;28;20215;-71
2023/05/23 05:00:13;;;;;;;5.53;5.03;;;19.70;99.90;;;;;;5066794;28;20708;-71
2023/05/23 05:02:42;;;;;;;8.77;5.43;;;19.70;99.90;;;;;;5066834;28;20836;-71
2023/05/23 05:05:10;;;;;;;5.50;5.07;;;19.60;99.90;;;;;;5066214;28;20277;-71
2023/05/23 05:07:37;;;;;;;5.80;5.20;;;19.50;99.90;;;;;;5066086;28;20298;-71
2023/05/23 05:10:04;;;;;;;6.73;5.87;;;19.50;99.90;;;;;;5066890;28;20298;-71
2023/05/23 05:12:33;;;;;;;6.33;4.97;;;19.30;99.90;;;;;;5066424;28;20354;-71
2023/05/23 05:15:00;;;;;;;7.30;5.30;;;19.30;99.90;;;;;;5066749;28;20302;-71
2023/05/23 05:17:26;;;;;;;11.67;5.43;;;19.20;99.90;;;;;;5066493;28;20632;-71
2023/05/23 05:19:53;;;;;;;6.73;5.10;;;19.10;99.90;;;;;;5066461;28;20298;-71
2023/05/23 05:22:20;;;;;;;6.47;4.77;;;19.00;99.90;;;;;;5066218;28;20247;-71
2023/05/23 05:24:47;;;;;;;8.73;4.50;;;18.90;99.90;;;;;;5066526;28;20291;-71
2023/05/23 05:27:14;;;;;;;5.80;5.20;;;18.90;99.90;;;;;;5066652;28;20235;-71
2023/05/23 05:29:42;;;;;;;4.97;4.47;;;18.90;99.90;;;;;;5066405;28;20296;-71
2023/05/23 05:32:09;;;;;;;7.10;5.13;;;19.00;99.90;;;;;;5066834;28;20322;-72
2023/05/23 05:34:36;;;;;;;5.20;4.67;;;19.10;99.90;;;;;;5066995;28;20199;-71
2023/05/23 05:37:04;;;;;;;5.37;4.70;;;19.10;99.90;;;;;;5066574;28;20231;-71
2023/05/23 05:39:31;;;;;;;6.03;4.70;;;19.20;99.90;;;;;;5053300;28;20230;-71
2023/05/23 05:41:58;;;;;;;9.53;4.57;;;19.20;99.40;;;;;;5046184;28;20219;-71
2023/05/23 05:44:25;;;;;;;4.70;4.30;;;19.20;99.10;;;;;;5046381;28;20208;-71
2023/05/23 05:46:54;;;;;;;4.83;4.43;;;19.20;99.20;;;;;;5057582;28;20696;-72
2023/05/23 05:49:21;;;;;;;6.33;4.37;;;19.30;99.20;;;;;;5066168;28;20204;-71
2023/05/23 05:51:48;;;;;;;5.13;4.63;;;19.30;99.20;;;;;;5065666;28;20316;-71
2023/05/23 05:54:15;;;;;;;11.37;5.17;;;19.40;99.30;;;;;;5066013;28;20212;-71
2023/05/23 05:56:42;;;;;;;10.60;4.60;;;19.40;99.30;;;;;;5065867;28;20222;-71
2023/05/23 05:59:09;;;;;;;8.70;4.47;;;19.50;99.40;;;;;;5066154;28;20327;-71
2023/05/23 06:01:36;;;;;;;5.72;4.70;;;19.50;99.30;;;;;;5065868;28;20235;-71
2023/05/23 06:04:05;;;;;;;8.65;4.43;;;19.50;99.10;;;;;;5065919;28;20202;-71
2023/05/23 06:06:32;;;;;;;6.77;4.43;;;19.50;99.10;;;;;;5065680;28;20899;-71
2023/05/23 06:08:59;;;;;;;6.72;4.50;;;19.60;98.80;;;;;;5065846;28;20203;-71
2023/05/23 06:11:26;;;;;;;6.70;5.07;;;19.60;98.90;;;;;;5065282;28;20229;-71
2023/05/23 06:13:53;;;;;;;5.93;4.68;;;19.70;98.70;;;;;;5045634;28;20200;-71
2023/05/23 06:16:20;;;;;;;5.90;4.80;;;19.70;98.40;;;;;;5050237;28;20258;-71
2023/05/23 06:18:47;;;;;;;17.15;5.65;;;19.70;98.50;;;;;;5065408;28;20207;-71
2023/05/23 06:21:15;;;;;;;5.70;5.13;;;19.70;98.60;;;;;;5065512;28;20218;-71
2023/05/23 06:23:42;;;;;;;7.88;4.78;;;19.70;98.10;;;;;;5054989;28;20250;-71
2023/05/23 06:26:09;;;;;;;6.87;5.47;;;19.60;98.10;;;;;;5045184;28;20716;-71
2023/05/23 06:28:37;;;;;;;5.32;4.63;;;19.60;98.40;;;;;;5045355;28;20227;-71
2023/05/23 06:31:04;;;;;;;6.45;5.10;;;19.60;98.10;;;;;;5045146;28;20231;-71
2023/05/23 06:33:31;;;;;;;8.40;5.17;;;19.60;98.60;;;;;;5045071;28;20299;-71
2023/05/23 06:35:58;;;;;;;7.90;4.83;;;19.30;98.30;;;;;;5062342;28;20747;-71
2023/05/23 06:38:29;;;;;;;8.50;4.53;;;19.10;98.70;;;;;;5065307;28;20238;-71
2023/05/23 06:40:56;;;;;;;6.83;4.47;;;18.80;99.30;;;;;;5065222;28;20571;-71
2023/05/23 06:43:23;;;;;;;7.20;4.73;;;18.70;99.60;;;;;;5065043;28;20219;-71
2023/05/23 06:45:50;;;;;;;6.80;5.00;;;18.80;99.80;;;;;;5065031;28;20302;-71
2023/05/23 06:48:17;;;;;;;7.73;4.60;;;19.00;99.90;;;;;;5065636;28;20302;-71
2023/05/23 06:50:44;;;;;;;7.10;5.00;;;19.00;99.30;;;;;;5065105;28;20203;-71
2023/05/23 06:53:10;;;;;;;6.67;4.73;;;19.00;99.30;;;;;;5065089;28;20688;-71
2023/05/23 06:55:39;;;;;;;5.73;4.60;;;19.00;99.60;;;;;;5065603;28;20203;-71
2023/05/23 06:58:06;;;;;;;7.17;5.27;;;19.00;99.70;;;;;;5065446;28;20775;-71
2023/05/23 07:00:33;;;;;;;5.73;5.13;;;19.00;99.60;;;;;;5065270;28;20241;-71
2023/05/23 07:03:00;;;;;;;7.77;5.30;;;18.80;99.70;;;;;;5066817;28;20211;-71
2023/05/23 07:05:27;;;;;;;6.43;5.37;;;18.70;99.90;;;;;;5069392;28;20207;-71
2023/05/23 07:07:55;;;;;;;9.10;5.33;;;18.80;99.90;;;;;;5069443;28;20211;-71
2023/05/23 07:10:22;;;;;;;7.07;5.17;;;18.80;99.90;;;;;;5068974;28;20261;-71
2023/05/23 07:12:50;;;;;;;8.70;5.90;;;18.70;99.90;;;;;;5068865;28;20330;-71
2023/05/23 07:15:17;;;;;;;5.77;5.00;;;18.70;99.90;;;;;;5069062;28;20979;-71
2023/05/23 07:17:44;;;;;;;6.90;5.30;;;18.50;99.90;;;;;;5069362;28;20330;-71
2023/05/23 07:20:11;;;;;;;8.43;5.27;;;18.50;99.90;;;;;;5069338;28;20204;-71
2023/05/23 07:22:38;;;;;;;9.17;5.53;;;18.60;99.90;;;;;;5068886;28;20660;-71
2023/05/23 07:25:06;;;;;;;8.27;5.33;;;18.70;99.90;;;;;;5069429;28;20761;-71
2023/05/23 07:27:33;;;;;;;5.50;5.03;;;18.70;99.90;;;;;;5068993;28;20670;-71
2023/05/23 07:30:02;;;;;;;6.63;4.97;;;18.70;99.90;;;;;;5069039;28;20330;-71
2023/05/23 07:32:29;;;;;;;5.40;4.87;;;18.60;99.90;;;;;;5068411;28;20238;-71
2023/05/23 07:34:55;;;;;;;6.27;5.40;;;18.50;99.90;;;;;;5069234;28;20298;-71
2023/05/23 07:37:22;;;;;;;4.80;4.50;;;18.40;99.90;;;;;;5068770;28;20668;-72
2023/05/23 07:39:49;;;;;;;5.47;5.00;;;18.30;99.90;;;;;;5068903;28;20717;-71
2023/05/23 07:42:16;;;;;;;6.07;4.80;;;18.20;99.90;;;;;;5068647;28;20224;-71
2023/05/23 07:44:43;;;;;;;5.17;4.67;;;18.30;99.90;;;;;;5068410;28;20242;-71
2023/05/23 07:47:11;;;;;;;7.77;5.03;;;18.30;99.90;;;;;;5068465;28;20294;-71
2023/05/23 07:49:38;;;;;;;5.77;4.47;;;18.20;99.90;;;;;;5068637;28;20294;-71
2023/05/23 07:52:05;;;;;;;7.70;4.60;;;18.40;99.90;;;;;;5067959;28;20745;-71
2023/05/23 07:54:32;;;;;;;5.27;4.60;;;18.50;99.90;;;;;;5068667;28;20314;-71
2023/05/23 07:56:59;;;;;;;7.40;4.63;;;18.80;99.90;;;;;;5068287;28;20318;-71
2023/05/23 07:59:26;;;;;;;8.07;4.90;;;18.80;99.90;;;;;;5068121;28;20752;-71
2023/05/23 08:01:53;;;;;;;7.37;5.73;;;19.00;99.90;;;;;;5068530;28;20235;-71
2023/05/23 08:04:21;;;;;;;6.97;5.27;;;19.10;99.90;;;;;;5068141;28;20204;-71
2023/05/23 08:06:48;;;;;;;5.47;5.07;;;18.90;99.90;;;;;;5068118;28;20300;-71
2023/05/23 08:09:15;;;;;;;5.40;5.00;;;19.00;99.90;;;;;;5068338;28;20244;-71
2023/05/23 08:11:42;;;;;;;5.13;4.67;;;19.10;99.90;;;;;;5067664;28;20639;-71
2023/05/23 08:14:09;;;;;;;5.03;4.63;;;19.30;99.90;;;;;;5066983;28;20307;-71
2023/05/23 08:16:36;;;;;;;7.87;4.73;;;19.50;99.90;;;;;;5067487;28;20307;-71
2023/05/23 08:19:03;;;;;;;5.73;5.03;;;19.60;99.90;;;;;;5068124;28;20219;-71
2023/05/23 08:21:32;;;;;;;9.13;5.30;;;19.60;99.90;;;;;;5067704;28;20307;-71
2023/05/23 08:23:59;;;;;;;6.70;5.20;;;19.40;99.90;;;;;;5067911;28;20207;-71
2023/05/23 08:26:26;;;;;;;5.37;4.70;;;19.50;99.90;;;;;;5067722;28;20780;-71
2023/05/23 08:28:53;;;;;;;6.13;5.50;;;19.70;99.90;;;;;;5067633;28;20576;-71
2023/05/23 08:31:20;;;;;;;5.27;4.77;;;19.80;99.90;;;;;;5067726;28;20218;-71
2023/05/23 08:33:47;;;;;;;5.30;4.90;;;19.60;99.90;;;;;;5068293;28;20212;-71
2023/05/23 08:36:14;;;;;;;7.00;5.40;;;19.60;99.90;;;;;;5067681;28;20770;-71
2023/05/23 08:38:43;;;;;;;6.13;5.53;;;19.70;99.90;;;;;;5067339;28;20600;-71
2023/05/23 08:41:18;;;;;;;6.13;5.30;;;19.80;99.90;;;;;;5067607;28;20208;-71
2023/05/23 08:43:45;;;;;;;6.97;4.97;;;19.70;99.90;;;;;;5067572;28;20199;-71
2023/05/23 08:46:13;;;;;;;7.03;5.10;;;19.80;99.90;;;;;;5067532;28;20220;-71
2023/05/23 08:48:41;;;;;;;7.87;5.30;;;19.80;99.90;;;;;;5067233;28;20877;-71
2023/05/23 08:51:10;;;;;;;6.33;5.20;;;19.90;99.90;;;;;;5067863;28;20205;-71
2023/05/23 08:53:41;;;;;;;6.07;5.50;;;19.90;99.90;;;;;;5067192;28;20354;-71
2023/05/23 08:56:10;;;;;;;6.07;5.30;;;20.10;99.90;;;;;;5067717;28;20207;-71
2023/05/23 08:58:39;;;;;;;6.80;6.13;;;20.20;99.90;;;;;;5067298;28;20305;-71
2023/05/23 09:01:07;;;;;;;7.67;5.87;;;20.20;99.90;;;;;;5067144;28;20203;-71
2023/05/23 09:03:36;;;;;;;7.73;6.57;;;20.10;99.90;;;;;;5067109;28;20239;-71
2023/05/23 09:06:03;;;;;;;9.97;6.23;;;19.90;99.90;;;;;;5067438;28;20272;-71
2023/05/23 09:08:30;;;;;;;11.57;6.17;;;19.80;99.90;;;;;;5066897;28;20206;-71
2023/05/23 09:10:57;;;;;;;7.80;7.10;;;19.90;99.90;;;;;;5067116;28;20313;-71
2023/05/23 09:13:27;;;;;;;7.47;6.70;;;20.00;99.90;;;;;;5066603;28;20330;-71
2023/05/23 09:16:01;;;;;;;9.03;7.00;;;20.00;99.90;;;;;;5067193;28;20230;-71
2023/05/23 09:18:33;;;;;;;7.77;7.10;;;20.10;99.90;;;;;;5067002;28;20274;-71
2023/05/23 09:21:01;;;;;;;8.20;7.50;;;20.10;99.90;;;;;;5067034;28;20768;-71
2023/05/23 09:23:30;;;;;;;7.70;7.10;;;20.20;99.90;;;;;;5065298;28;20302;-71
2023/05/23 09:25:57;;;;;;;8.20;7.55;;;20.10;99.90;;;;;;5067126;28;20207;-71
2023/05/23 09:28:25;;;;;;;9.10;8.20;;;20.20;99.90;;;;;;5067135;28;20610;-71
2023/05/23 09:30:58;;;;;;;12.37;7.77;;;20.20;99.90;;;;;;5066453;28;20200;-71
2023/05/23 09:33:33;;;;;;;13.57;8.17;;;20.30;99.90;;;;;;5066830;28;20219;-71
2023/05/23 09:36:00;;;;;;;9.90;8.97;;;20.20;99.90;;;;;;5066899;28;20304;-71
2023/05/23 09:38:28;;;;;;;8.73;8.13;;;20.10;99.90;;;;;;5066355;28;20203;-71
2023/05/23 09:40:56;;;;;;;9.00;8.02;;;20.00;99.90;;;;;;5066603;28;20222;-71
2023/05/23 09:43:25;;;;;;;8.82;7.95;;;20.00;99.90;;;;;;5066592;28;20218;-71
2023/05/23 09:45:54;;;;;;;10.03;8.47;;;20.10;99.90;;;;;;5066408;28;20575;-71
2023/05/23 09:48:29;;;;;;;9.80;8.90;;;20.00;99.90;;;;;;5066439;28;20296;-71
2023/05/23 09:50:56;;;;;;;9.40;8.60;;;19.90;99.90;;;;;;5066383;28;20199;-71
2023/05/23 09:53:23;;;;;;;9.20;8.27;;;20.00;99.90;;;;;;5066015;28;20507;-71
2023/05/23 09:55:51;;;;;;;10.10;9.20;;;19.90;99.90;;;;;;5066086;28;20211;-71
2023/05/23 09:58:20;;;;;;;10.53;8.63;;;19.90;99.90;;;;;;5065904;28;20223;-71
2023/05/23 10:00:51;;;;;;;9.97;9.20;;;19.80;99.90;;;;;;5066325;28;20770;-71
2023/05/23 10:03:24;;;;;;;10.73;8.73;;;19.80;99.90;;;;;;5066333;28;20211;-72
2023/05/23 10:05:56;;;;;;;9.93;8.97;;;19.80;99.90;;;;;;5066373;28;20285;-71
2023/05/23 10:08:28;;;;;;;11.53;9.10;;;19.80;99.90;;;;;;5066266;28;20287;-71
2023/05/23 10:11:37;;;;;;;11.73;9.90;;;19.70;99.90;;;;;;5066165;28;20638;-71
2023/05/23 10:14:07;;;;;;;10.77;9.87;;;19.60;99.90;;;;;;5066050;28;20231;-71
2023/05/23 10:16:49;;;;;;;12.60;11.33;;;19.50;99.90;;;;;;5066221;28;20310;-71
2023/05/23 10:19:24;;;;;;;12.37;10.90;;;19.30;99.90;;;;;;5065716;28;20648;-72
2023/05/23 10:21:58;;;;;;;11.50;10.40;;;19.20;99.90;;;;;;5065895;28;20537;-71
2023/05/23 10:24:25;;;;;;;11.27;9.67;;;19.10;99.90;;;;;;5065944;28;20195;-71
2023/05/23 10:26:53;;;;;;;11.93;10.67;;;19.00;99.90;;;;;;5065796;28;20257;-71
2023/05/23 10:29:21;;;;;;;11.63;10.70;;;19.00;99.90;;;;;;5065421;28;20203;-71
2023/05/23 10:31:50;;;;;;;12.90;11.57;;;19.00;99.90;;;;;;5066116;28;20579;-71
2023/05/23 10:34:24;;;;;;;12.47;11.27;;;19.10;99.90;;;;;;5065652;28;20684;-71
2023/05/23 10:36:59;;;;;;;15.47;13.83;;;19.10;99.90;;;;;;5065474;28;20729;-71
2023/05/23 10:39:46;;;;;;;14.53;13.13;;;19.00;99.90;;;;;;5065342;28;20574;-71
2023/05/23 10:42:19;;;;;;;16.23;14.67;;;19.00;99.90;;;;;;5065764;28;20664;-71
2023/05/23 10:44:46;;;;;;;16.97;15.37;;;19.00;99.90;;;;;;5065818;28;20192;-71
2023/05/23 10:47:26;;;;;;;17.33;15.40;;;19.10;99.90;;;;;;5065721;28;20302;-71
2023/05/23 10:49:54;;;;;;;17.37;15.67;;;18.90;99.90;;;;;;5065981;28;20203;-71
2023/05/23 10:52:25;;;;;;;18.00;16.20;;;18.90;99.90;;;;;;5065397;28;20231;-71
2023/05/23 10:54:54;;;;;;;16.70;15.10;;;18.90;99.90;;;;;;5065565;28;20203;-71
2023/05/23 10:57:22;;;;;;;18.90;16.77;;;19.00;99.90;;;;;;5065828;28;20210;-71
2023/05/23 10:59:50;;;;;;;19.10;17.23;;;18.80;99.90;;;;;;5065500;28;20735;-71
2023/05/23 11:02:25;;;;;;;19.93;16.77;;;18.60;99.90;;;;;;5065858;28;20211;-71
2023/05/23 11:05:20;;;;;;;17.73;15.97;;;18.60;99.90;;;;;;5065586;28;20191;-71
2023/05/23 11:07:47;;;;;;;18.33;16.60;;;18.70;99.90;;;;;;5065391;28;20212;-71
2023/05/23 11:10:14;;;;;;;20.57;18.37;;;18.70;99.90;;;;;;5065154;28;20297;-71
2023/05/23 11:12:42;;;;;;;18.67;16.80;;;18.70;99.90;;;;;;5064838;28;20247;-71
2023/05/23 11:15:26;;;;;;;19.50;17.57;;;18.60;99.90;;;;;;5065276;28;20238;-71
2023/05/23 11:17:56;;;;;;;18.77;16.80;;;18.50;99.90;;;;;;5062979;28;20294;-71
2023/05/23 11:20:27;;;;;;;19.43;17.17;;;18.40;99.90;;;;;;5065740;28;20486;-71
2023/05/23 11:22:55;;;;;;;20.60;18.50;;;18.40;99.90;;;;;;5061962;28;20193;-71
2023/05/23 11:25:40;;;;;;;18.70;16.87;;;18.40;99.90;;;;;;5060242;28;20819;-71
2023/05/23 11:28:07;;;;;;;17.80;16.00;;;18.60;99.90;;;;;;5065482;28;20812;-71
2023/05/23 11:30:36;;;;;;;17.47;15.77;;;18.80;99.90;;;;;;5065095;28;20207;-71
2023/05/23 11:33:10;;;;;;;18.30;16.37;;;18.80;99.90;;;;;;5065215;28;20242;-71
2023/05/23 11:35:37;;;;;;;18.77;16.77;;;18.80;99.90;;;;;;5065237;28;20228;-71
2023/05/23 11:38:05;;;;;;;17.87;16.07;;;18.90;99.90;;;;;;5064900;28;20646;-71
2023/05/23 11:40:33;;;;;;;18.53;16.37;;;18.90;99.90;;;;;;5065301;28;20213;-71
2023/05/23 11:43:02;;;;;;;17.80;16.20;;;19.00;99.90;;;;;;5064960;28;20238;-71
2023/05/23 11:45:30;;;;;;;17.30;15.70;;;18.90;99.90;;;;;;5065150;28;20239;-71
2023/05/23 11:47:57;;;;;;;18.53;16.60;;;18.90;99.90;;;;;;5065508;28;20231;-71
2023/05/23 11:50:25;;;;;;;19.93;17.93;;;18.80;99.90;;;;;;5066976;28;20601;-71
2023/05/23 11:52:54;;;;;;;17.20;15.50;;;18.70;99.90;;;;;;5068290;28;20318;-71
2023/05/23 11:55:21;;;;;;;17.90;16.20;;;18.70;99.90;;;;;;5068552;28;20203;-71
2023/05/23 11:57:48;;;;;;;18.90;16.87;;;18.50;99.90;;;;;;5068252;28;20872;-71
2023/05/23 12:00:16;;;;;;;17.60;15.80;;;18.50;99.90;;;;;;5068348;28;20239;-71
2023/05/23 12:02:44;;;;;;;17.20;15.47;;;18.60;99.90;;;;;;5068001;28;20265;-72
2023/05/23 12:05:13;;;;;;;18.20;15.23;;;18.60;99.90;;;;;;5068636;28;20242;-71
2023/05/23 12:07:42;;;;;;;18.60;16.53;;;18.70;99.90;;;;;;5068444;28;20294;-71
2023/05/23 12:10:10;;;;;;;17.77;16.00;;;18.70;99.90;;;;;;5068116;28;20665;-71
2023/05/23 12:12:41;;;;;;;15.87;14.27;;;18.70;99.90;;;;;;5067885;28;20386;-71
2023/05/23 12:15:09;;;;;;;16.40;14.80;;;18.70;99.90;;;;;;5068245;28;20661;-71
2023/05/23 12:17:36;;;;;;;15.63;14.13;;;18.80;99.90;;;;;;5052788;28;20767;-71
2023/05/23 12:20:05;;;;;;;14.03;12.73;;;18.80;99.90;;;;;;5055227;28;20207;-71
2023/05/23 12:22:32;;;;;;;14.07;12.80;;;18.90;99.90;;;;;;5068029;28;20354;-71
2023/05/23 12:25:00;;;;;;;13.80;12.47;;;19.10;99.90;;;;;;5067821;28;20299;-71
2023/05/23 12:27:30;;;;;;;13.60;12.30;;;19.20;99.90;;;;;;5067848;28;21122;-71
2023/05/23 12:30:06;;;;;;;12.70;11.63;;;19.20;99.90;;;;;;5067923;28;20313;-71
2023/05/23 12:32:33;;;;;;;12.67;11.63;;;19.30;99.90;;;;;;5067579;28;20207;-71
2023/05/23 12:35:00;;;;;;;11.87;10.97;;;19.30;99.90;;;;;;5067889;28;20232;-71
2023/05/23 12:37:28;;;;;;;12.90;11.70;;;19.40;99.90;;;;;;5067501;28;20212;-71
2023/05/23 12:39:55;;;;;;;13.00;11.90;;;19.40;99.90;;;;;;5067093;28;21024;-71
2023/05/23 12:42:24;;;;;;;12.53;11.23;;;19.30;99.90;;;;;;5067266;28;20214;-71
2023/05/23 12:44:53;;;;;;;12.80;11.70;;;19.20;99.90;;;;;;5067446;28;20298;-71
2023/05/23 12:47:20;;;;;;;14.50;13.10;;;19.20;99.90;;;;;;5067210;28;20731;-71
2023/05/23 12:49:47;;;;;;;13.90;12.70;;;19.10;99.90;;;;;;5067707;28;20207;-71